sensor_id;sensor_type;location;lat;lon;timestamp;pressure;altitude;pressure_sealevel;temperature
44791;BMP280;30510;37.536;-122.304;2022-07-06T00:00:10;101353.00;;;25.98
44791;BMP280;30510;37.536;-122.304;2022-07-06T00:02:36;101346.91;;;26.03
44791;BMP280;30510;37.536;-122.304;2022-07-06T00:05:01;101350.50;;;26.04
44791;BMP280;30510;37.536;-122.304;2022-07-06T00:07:26;101344.84;;;26.05
44791;BMP280;30510;37.536;-122.304;2022-07-06T00:09:52;101349.16;;;26.08
44791;BMP280;30510;37.536;-122.304;2022-07-06T00:12:17;101343.97;;;26.05
44791;BMP280;30510;37.536;-122.304;2022-07-06T00:14:42;101337.59;;;26.04
44791;BMP280;30510;37.536;-122.304;2022-07-06T00:17:08;101334.28;;;26.01
44791;BMP280;30510;37.536;-122.304;2022-07-06T00:19:33;101330.69;;;26.01
44791;BMP280;30510;37.536;-122.304;2022-07-06T00:21:59;101335.00;;;26.03
44791;BMP280;30510;37.536;-122.304;2022-07-06T00:24:25;101328.50;;;26.04
44791;BMP280;30510;37.536;-122.304;2022-07-06T00:26:51;101327.78;;;26.02
44791;BMP280;30510;37.536;-122.304;2022-07-06T00:29:16;101323.44;;;26.00
44791;BMP280;30510;37.536;-122.304;2022-07-06T00:31:41;101320.28;;;25.95
44791;BMP280;30510;37.536;-122.304;2022-07-06T00:34:07;101318.00;;;25.90
44791;BMP280;30510;37.536;-122.304;2022-07-06T00:36:32;101323.66;;;25.89
44791;BMP280;30510;37.536;-122.304;2022-07-06T00:38:57;101320.28;;;25.95
44791;BMP280;30510;37.536;-122.304;2022-07-06T00:41:23;101312.22;;;25.93
44791;BMP280;30510;37.536;-122.304;2022-07-06T00:43:53;101310.31;;;25.94
44791;BMP280;30510;37.536;-122.304;2022-07-06T00:46:18;101311.72;;;25.98
44791;BMP280;30510;37.536;-122.304;2022-07-06T00:48:44;101308.44;;;25.94
44791;BMP280;30510;37.536;-122.304;2022-07-06T00:51:10;101305.81;;;25.93
44791;BMP280;30510;37.536;-122.304;2022-07-06T00:53:35;101307.44;;;25.86
44791;BMP280;30510;37.536;-122.304;2022-07-06T00:56:02;101305.75;;;25.85
44791;BMP280;30510;37.536;-122.304;2022-07-06T00:58:27;101306.59;;;24.94
44791;BMP280;30510;37.536;-122.304;2022-07-06T01:00:53;101303.06;;;23.78
44791;BMP280;30510;37.536;-122.304;2022-07-06T01:03:18;101321.19;;;23.00
44791;BMP280;30510;37.536;-122.304;2022-07-06T01:05:43;101313.13;;;22.36
44791;BMP280;30510;37.536;-122.304;2022-07-06T01:08:09;101311.13;;;21.85
44791;BMP280;30510;37.536;-122.304;2022-07-06T01:10:34;101304.59;;;21.55
44791;BMP280;30510;37.536;-122.304;2022-07-06T01:13:00;101310.72;;;21.13
44791;BMP280;30510;37.536;-122.304;2022-07-06T01:15:25;101304.72;;;20.87
44791;BMP280;30510;37.536;-122.304;2022-07-06T01:17:51;101312.47;;;20.69
44791;BMP280;30510;37.536;-122.304;2022-07-06T01:20:17;101306.41;;;20.43
44791;BMP280;30510;37.536;-122.304;2022-07-06T01:22:44;101305.41;;;20.21
44791;BMP280;30510;37.536;-122.304;2022-07-06T01:25:09;101309.00;;;19.98
44791;BMP280;30510;37.536;-122.304;2022-07-06T01:27:35;101311.03;;;19.84
44791;BMP280;30510;37.536;-122.304;2022-07-06T01:30:01;101316.47;;;19.71
44791;BMP280;30510;37.536;-122.304;2022-07-06T01:32:27;101315.84;;;19.55
44791;BMP280;30510;37.536;-122.304;2022-07-06T01:34:52;101314.25;;;19.76
44791;BMP280;30510;37.536;-122.304;2022-07-06T01:37:18;101318.09;;;20.79
44791;BMP280;30510;37.536;-122.304;2022-07-06T01:39:43;101322.06;;;21.42
44791;BMP280;30510;37.536;-122.304;2022-07-06T01:42:08;101304.69;;;21.86
44791;BMP280;30510;37.536;-122.304;2022-07-06T01:44:34;101309.72;;;22.23
44791;BMP280;30510;37.536;-122.304;2022-07-06T01:46:59;101323.50;;;22.53
44791;BMP280;30510;37.536;-122.304;2022-07-06T01:49:25;101324.91;;;22.78
44791;BMP280;30510;37.536;-122.304;2022-07-06T01:51:50;101311.84;;;23.02
44791;BMP280;30510;37.536;-122.304;2022-07-06T01:54:15;101318.31;;;23.21
44791;BMP280;30510;37.536;-122.304;2022-07-06T01:56:41;101313.22;;;23.37
44791;BMP280;30510;37.536;-122.304;2022-07-06T01:59:06;101306.34;;;23.52
44791;BMP280;30510;37.536;-122.304;2022-07-06T02:01:31;101322.63;;;23.64
44791;BMP280;30510;37.536;-122.304;2022-07-06T02:03:57;101317.91;;;23.76
44791;BMP280;30510;37.536;-122.304;2022-07-06T02:06:22;101310.59;;;23.86
44791;BMP280;30510;37.536;-122.304;2022-07-06T02:08:48;101318.69;;;23.96
44791;BMP280;30510;37.536;-122.304;2022-07-06T02:11:13;101317.97;;;24.04
44791;BMP280;30510;37.536;-122.304;2022-07-06T02:13:39;101324.63;;;24.11
44791;BMP280;30510;37.536;-122.304;2022-07-06T02:16:04;101327.69;;;24.17
44791;BMP280;30510;37.536;-122.304;2022-07-06T02:18:30;101325.97;;;24.26
44791;BMP280;30510;37.536;-122.304;2022-07-06T02:20:55;101333.03;;;23.70
44791;BMP280;30510;37.536;-122.304;2022-07-06T02:23:20;101338.78;;;22.24
44791;BMP280;30510;37.536;-122.304;2022-07-06T02:25:46;101344.25;;;21.37
44791;BMP280;30510;37.536;-122.304;2022-07-06T02:28:11;101343.28;;;21.38
44791;BMP280;30510;37.536;-122.304;2022-07-06T02:30:37;101338.03;;;22.22
44791;BMP280;30510;37.536;-122.304;2022-07-06T02:33:02;101344.97;;;22.68
44791;BMP280;30510;37.536;-122.304;2022-07-06T02:35:28;101330.25;;;23.00
44791;BMP280;30510;37.536;-122.304;2022-07-06T02:37:53;101328.97;;;23.24
44791;BMP280;30510;37.536;-122.304;2022-07-06T02:40:18;101328.22;;;23.43
44791;BMP280;30510;37.536;-122.304;2022-07-06T02:42:44;101322.25;;;23.58
44791;BMP280;30510;37.536;-122.304;2022-07-06T02:45:09;101329.28;;;23.71
44791;BMP280;30510;37.536;-122.304;2022-07-06T02:47:35;101324.56;;;23.83
44791;BMP280;30510;37.536;-122.304;2022-07-06T02:50:00;101321.88;;;23.92
44791;BMP280;30510;37.536;-122.304;2022-07-06T02:52:26;101323.91;;;23.99
44791;BMP280;30510;37.536;-122.304;2022-07-06T02:54:51;101329.53;;;24.07
44791;BMP280;30510;37.536;-122.304;2022-07-06T02:57:16;101328.09;;;24.13
44791;BMP280;30510;37.536;-122.304;2022-07-06T02:59:42;101330.63;;;24.35
44791;BMP280;30510;37.536;-122.304;2022-07-06T03:02:07;101328.91;;;24.34
44791;BMP280;30510;37.536;-122.304;2022-07-06T03:04:33;101337.72;;;24.37
44791;BMP280;30510;37.536;-122.304;2022-07-06T03:06:59;101335.13;;;24.36
44791;BMP280;30510;37.536;-122.304;2022-07-06T03:09:24;101344.81;;;24.39
44791;BMP280;30510;37.536;-122.304;2022-07-06T03:11:49;101340.47;;;24.46
44791;BMP280;30510;37.536;-122.304;2022-07-06T03:14:15;101341.63;;;24.35
44791;BMP280;30510;37.536;-122.304;2022-07-06T03:16:40;101319.94;;;24.32
44791;BMP280;30510;37.536;-122.304;2022-07-06T03:19:06;101323.13;;;24.37
44791;BMP280;30510;37.536;-122.304;2022-07-06T03:21:31;101315.63;;;24.38
44791;BMP280;30510;37.536;-122.304;2022-07-06T03:23:57;101322.59;;;24.42
44791;BMP280;30510;37.536;-122.304;2022-07-06T03:26:22;101319.66;;;24.44
44791;BMP280;30510;37.536;-122.304;2022-07-06T03:28:47;101326.31;;;24.41
44791;BMP280;30510;37.536;-122.304;2022-07-06T03:31:13;101331.81;;;24.41
44791;BMP280;30510;37.536;-122.304;2022-07-06T03:33:38;101329.78;;;24.43
44791;BMP280;30510;37.536;-122.304;2022-07-06T03:36:04;101323.44;;;24.43
44791;BMP280;30510;37.536;-122.304;2022-07-06T03:38:29;101332.25;;;24.46
44791;BMP280;30510;37.536;-122.304;2022-07-06T03:40:54;101330.22;;;24.48
44791;BMP280;30510;37.536;-122.304;2022-07-06T03:43:20;101336.88;;;24.55
44791;BMP280;30510;37.536;-122.304;2022-07-06T03:45:46;101343.09;;;24.67
44791;BMP280;30510;37.536;-122.304;2022-07-06T03:48:11;101342.38;;;24.55
44791;BMP280;30510;37.536;-122.304;2022-07-06T03:50:37;101342.78;;;24.51
44791;BMP280;30510;37.536;-122.304;2022-07-06T03:53:02;101343.22;;;24.46
44791;BMP280;30510;37.536;-122.304;2022-07-06T03:55:27;101348.00;;;24.44
44791;BMP280;30510;37.536;-122.304;2022-07-06T03:57:53;101353.34;;;24.46
44791;BMP280;30510;37.536;-122.304;2022-07-06T04:00:18;101354.34;;;24.45
44791;BMP280;30510;37.536;-122.304;2022-07-06T04:02:43;101364.16;;;24.47
44791;BMP280;30510;37.536;-122.304;2022-07-06T04:05:09;101355.63;;;24.50
44791;BMP280;30510;37.536;-122.304;2022-07-06T04:07:34;101362.44;;;24.56
44791;BMP280;30510;37.536;-122.304;2022-07-06T04:10:00;101360.72;;;24.55
44791;BMP280;30510;37.536;-122.304;2022-07-06T04:12:25;101364.75;;;24.60
44791;BMP280;30510;37.536;-122.304;2022-07-06T04:14:50;101367.22;;;24.63
44791;BMP280;30510;37.536;-122.304;2022-07-06T04:17:16;101367.63;;;24.68
44791;BMP280;30510;37.536;-122.304;2022-07-06T04:19:41;101367.63;;;24.68
44791;BMP280;30510;37.536;-122.304;2022-07-06T04:22:07;101379.38;;;24.70
44791;BMP280;30510;37.536;-122.304;2022-07-06T04:24:32;101378.06;;;24.74
44791;BMP280;30510;37.536;-122.304;2022-07-06T04:26:58;101382.38;;;24.77
44791;BMP280;30510;37.536;-122.304;2022-07-06T04:29:23;101387.72;;;24.78
44791;BMP280;30510;37.536;-122.304;2022-07-06T04:31:48;101391.66;;;24.76
44791;BMP280;30510;37.536;-122.304;2022-07-06T04:34:14;101389.47;;;24.79
44791;BMP280;30510;37.536;-122.304;2022-07-06T04:36:39;101394.66;;;24.82
44791;BMP280;30510;37.536;-122.304;2022-07-06T04:39:04;101398.56;;;24.79
44791;BMP280;30510;37.536;-122.304;2022-07-06T04:41:30;101393.66;;;24.83
44791;BMP280;30510;37.536;-122.304;2022-07-06T04:43:55;101398.31;;;24.82
44791;BMP280;30510;37.536;-122.304;2022-07-06T04:46:21;101404.22;;;24.87
44791;BMP280;30510;37.536;-122.304;2022-07-06T04:48:46;101415.03;;;24.89
44791;BMP280;30510;37.536;-122.304;2022-07-06T04:51:11;101409.56;;;24.89
44791;BMP280;30510;37.536;-122.304;2022-07-06T04:53:37;101407.84;;;24.88
44791;BMP280;30510;37.536;-122.304;2022-07-06T04:56:02;101410.44;;;24.89
44791;BMP280;30510;37.536;-122.304;2022-07-06T04:58:28;101412.59;;;24.86
44791;BMP280;30510;37.536;-122.304;2022-07-06T05:00:53;101431.81;;;24.86
44791;BMP280;30510;37.536;-122.304;2022-07-06T05:03:19;101426.34;;;24.86
44791;BMP280;30510;37.536;-122.304;2022-07-06T05:05:44;101421.13;;;24.83
44791;BMP280;30510;37.536;-122.304;2022-07-06T05:08:09;101422.88;;;24.84
44791;BMP280;30510;37.536;-122.304;2022-07-06T05:10:35;101426.75;;;24.81
44791;BMP280;30510;37.536;-122.304;2022-07-06T05:13:00;101430.66;;;24.79
44791;BMP280;30510;37.536;-122.304;2022-07-06T05:15:26;101443.34;;;24.80
44791;BMP280;30510;37.536;-122.304;2022-07-06T05:17:51;101443.34;;;24.80
44791;BMP280;30510;37.536;-122.304;2022-07-06T05:20:16;101439.88;;;24.78
44791;BMP280;30510;37.536;-122.304;2022-07-06T05:22:42;101442.06;;;24.75
44791;BMP280;30510;37.536;-122.304;2022-07-06T05:25:07;101443.81;;;24.76
44791;BMP280;30510;37.536;-122.304;2022-07-06T05:27:33;101439.88;;;24.78
44791;BMP280;30510;37.536;-122.304;2022-07-06T05:29:58;101447.25;;;24.77
44791;BMP280;30510;37.536;-122.304;2022-07-06T05:32:23;101449.44;;;24.74
44791;BMP280;30510;37.536;-122.304;2022-07-06T05:34:49;101446.97;;;24.71
44791;BMP280;30510;37.536;-122.304;2022-07-06T05:37:15;101446.22;;;24.69
44791;BMP280;30510;37.536;-122.304;2022-07-06T05:39:40;101451.00;;;24.67
44791;BMP280;30510;37.536;-122.304;2022-07-06T05:42:06;101447.53;;;24.65
44791;BMP280;30510;37.536;-122.304;2022-07-06T05:44:31;101445.94;;;24.63
44791;BMP280;30510;37.536;-122.304;2022-07-06T05:46:56;101449.56;;;24.63
44791;BMP280;30510;37.536;-122.304;2022-07-06T05:49:22;101446.22;;;24.60
44791;BMP280;30510;37.536;-122.304;2022-07-06T05:51:47;101445.47;;;24.58
44791;BMP280;30510;37.536;-122.304;2022-07-06T05:54:12;101448.13;;;24.69
44791;BMP280;30510;37.536;-122.304;2022-07-06T05:56:38;101447.53;;;24.65
44791;BMP280;30510;37.536;-122.304;2022-07-06T05:59:03;101437.81;;;24.61
44791;BMP280;30510;37.536;-122.304;2022-07-06T06:01:29;101449.69;;;24.62
44791;BMP280;30510;37.536;-122.304;2022-07-06T06:03:54;101436.13;;;24.60
44791;BMP280;30510;37.536;-122.304;2022-07-06T06:06:19;101430.63;;;24.60
44791;BMP280;30510;37.536;-122.304;2022-07-06T06:08:45;101428.59;;;24.62
44791;BMP280;30510;37.536;-122.304;2022-07-06T06:11:10;101440.56;;;24.61
44791;BMP280;30510;37.536;-122.304;2022-07-06T06:13:36;101440.16;;;24.56
44791;BMP280;30510;37.536;-122.304;2022-07-06T06:16:01;101436.38;;;24.57
44791;BMP280;30510;37.536;-122.304;2022-07-06T06:18:26;101436.53;;;24.56
44791;BMP280;30510;37.536;-122.304;2022-07-06T06:20:52;101437.69;;;24.53
44791;BMP280;30510;37.536;-122.304;2022-07-06T06:23:17;101428.00;;;24.49
44791;BMP280;30510;37.536;-122.304;2022-07-06T06:25:43;101432.75;;;24.47
44791;BMP280;30510;37.536;-122.304;2022-07-06T06:28:09;101434.63;;;24.47
44791;BMP280;30510;37.536;-122.304;2022-07-06T06:30:35;101440.13;;;24.47
44791;BMP280;30510;37.536;-122.304;2022-07-06T06:33:05;101437.50;;;24.45
44791;BMP280;30510;37.536;-122.304;2022-07-06T06:35:30;101433.19;;;24.43
44791;BMP280;30510;37.536;-122.304;2022-07-06T06:37:55;101429.72;;;24.41
44791;BMP280;30510;37.536;-122.304;2022-07-06T06:40:21;101427.69;;;24.43
44791;BMP280;30510;37.536;-122.304;2022-07-06T06:42:46;101428.41;;;24.45
44791;BMP280;30510;37.536;-122.304;2022-07-06T06:45:12;101425.09;;;24.41
44791;BMP280;30510;37.536;-122.304;2022-07-06T06:47:37;101429.41;;;24.44
44791;BMP280;30510;37.536;-122.304;2022-07-06T06:50:02;101421.63;;;24.39
44791;BMP280;30510;37.536;-122.304;2022-07-06T06:52:28;101418.75;;;24.41
44791;BMP280;30510;37.536;-122.304;2022-07-06T06:54:53;101427.09;;;24.39
44791;BMP280;30510;37.536;-122.304;2022-07-06T06:57:19;101426.06;;;24.40
44791;BMP280;30510;37.536;-122.304;2022-07-06T06:59:44;101424.50;;;24.38
44791;BMP280;30510;37.536;-122.304;2022-07-06T07:02:10;101424.50;;;24.38
44791;BMP280;30510;37.536;-122.304;2022-07-06T07:04:35;101419.28;;;24.35
44791;BMP280;30510;37.536;-122.304;2022-07-06T07:07:00;101422.91;;;24.36
44791;BMP280;30510;37.536;-122.304;2022-07-06T07:09:26;101421.16;;;24.35
44791;BMP280;30510;37.536;-122.304;2022-07-06T07:11:51;101424.03;;;24.33
44791;BMP280;30510;37.536;-122.304;2022-07-06T07:14:17;101426.91;;;24.32
44791;BMP280;30510;37.536;-122.304;2022-07-06T07:16:42;101408.03;;;24.29
44791;BMP280;30510;37.536;-122.304;2022-07-06T07:19:07;101416.25;;;24.29
44791;BMP280;30510;37.536;-122.304;2022-07-06T07:21:33;101413.59;;;24.27
44791;BMP280;30510;37.536;-122.304;2022-07-06T07:23:58;101415.47;;;24.27
44791;BMP280;30510;37.536;-122.304;2022-07-06T07:26:24;101413.03;;;24.24
44791;BMP280;30510;37.536;-122.304;2022-07-06T07:28:49;101421.25;;;24.24
44791;BMP280;30510;37.536;-122.304;2022-07-06T07:31:14;101410.41;;;24.22
44791;BMP280;30510;37.536;-122.304;2022-07-06T07:33:40;101414.00;;;24.23
44791;BMP280;30510;37.536;-122.304;2022-07-06T07:36:05;101406.06;;;24.20
44791;BMP280;30510;37.536;-122.304;2022-07-06T07:38:31;101412.31;;;24.22
44791;BMP280;30510;37.536;-122.304;2022-07-06T07:40:56;101412.31;;;24.22
44791;BMP280;30510;37.536;-122.304;2022-07-06T07:43:21;101405.19;;;24.19
44791;BMP280;30510;37.536;-122.304;2022-07-06T07:45:47;101401.59;;;24.19
44791;BMP280;30510;37.536;-122.304;2022-07-06T07:48:12;101400.75;;;24.18
44791;BMP280;30510;37.536;-122.304;2022-07-06T07:50:38;101404.47;;;24.17
44791;BMP280;30510;37.536;-122.304;2022-07-06T07:53:03;101406.34;;;24.17
44791;BMP280;30510;37.536;-122.304;2022-07-06T07:55:28;101406.50;;;24.15
44791;BMP280;30510;37.536;-122.304;2022-07-06T07:57:54;101402.88;;;24.15
44791;BMP280;30510;37.536;-122.304;2022-07-06T08:00:19;101400.16;;;24.15
44791;BMP280;30510;37.536;-122.304;2022-07-06T08:02:45;101402.13;;;24.13
44791;BMP280;30510;37.536;-122.304;2022-07-06T08:05:10;101402.13;;;24.13
44791;BMP280;30510;37.536;-122.304;2022-07-06T08:07:36;101409.50;;;24.12
44791;BMP280;30510;37.536;-122.304;2022-07-06T08:10:01;101409.50;;;24.12
44791;BMP280;30510;37.536;-122.304;2022-07-06T08:12:26;101409.63;;;24.11
44791;BMP280;30510;37.536;-122.304;2022-07-06T08:14:52;101405.91;;;24.12
44791;BMP280;30510;37.536;-122.304;2022-07-06T08:17:17;101398.66;;;24.11
44791;BMP280;30510;37.536;-122.304;2022-07-06T08:19:43;101396.94;;;24.10
44791;BMP280;30510;37.536;-122.304;2022-07-06T08:22:08;101407.03;;;24.09
44791;BMP280;30510;37.536;-122.304;2022-07-06T08:24:34;101403.56;;;24.07
44791;BMP280;30510;37.536;-122.304;2022-07-06T08:26:59;101396.22;;;24.08
44791;BMP280;30510;37.536;-122.304;2022-07-06T08:29:25;101415.69;;;24.05
44791;BMP280;30510;37.536;-122.304;2022-07-06T08:31:50;101407.31;;;24.06
44791;BMP280;30510;37.536;-122.304;2022-07-06T08:34:15;101391.16;;;24.03
44791;BMP280;30510;37.536;-122.304;2022-07-06T08:36:41;101400.41;;;24.02
44791;BMP280;30510;37.536;-122.304;2022-07-06T08:39:06;101396.91;;;24.00
44791;BMP280;30510;37.536;-122.304;2022-07-06T08:41:32;101409.75;;;24.00
44791;BMP280;30510;37.536;-122.304;2022-07-06T08:43:57;101406.16;;;23.99
44791;BMP280;30510;37.536;-122.304;2022-07-06T08:46:22;101404.41;;;23.98
44791;BMP280;30510;37.536;-122.304;2022-07-06T08:48:48;101391.72;;;23.97
44791;BMP280;30510;37.536;-122.304;2022-07-06T08:51:14;101401.78;;;23.97
44791;BMP280;30510;37.536;-122.304;2022-07-06T08:53:40;101398.31;;;23.95
44791;BMP280;30510;37.536;-122.304;2022-07-06T08:56:06;101407.56;;;23.94
44791;BMP280;30510;37.536;-122.304;2022-07-06T08:58:31;101396.59;;;23.94
44791;BMP280;30510;37.536;-122.304;2022-07-06T09:00:57;101400.34;;;23.93
44791;BMP280;30510;37.536;-122.304;2022-07-06T09:03:25;101399.47;;;23.93
44791;BMP280;30510;37.536;-122.304;2022-07-06T09:05:50;101401.50;;;23.91
44791;BMP280;30510;37.536;-122.304;2022-07-06T09:08:17;101398.03;;;23.89
44791;BMP280;30510;37.536;-122.304;2022-07-06T09:10:43;101404.38;;;23.89
44791;BMP280;30510;37.536;-122.304;2022-07-06T09:13:08;101402.63;;;23.88
44791;BMP280;30510;37.536;-122.304;2022-07-06T09:15:34;101403.66;;;23.87
44791;BMP280;30510;37.536;-122.304;2022-07-06T09:18:00;101410.84;;;23.88
44791;BMP280;30510;37.536;-122.304;2022-07-06T09:20:26;101407.38;;;23.86
44791;BMP280;30510;37.536;-122.304;2022-07-06T09:22:57;101408.41;;;23.85
44791;BMP280;30510;37.536;-122.304;2022-07-06T09:25:22;101402.16;;;23.83
44791;BMP280;30510;37.536;-122.304;2022-07-06T09:27:49;101395.69;;;23.84
44791;BMP280;30510;37.536;-122.304;2022-07-06T09:30:14;101397.69;;;23.82
44791;BMP280;30510;37.536;-122.304;2022-07-06T09:32:47;101400.56;;;23.81
44791;BMP280;30510;37.536;-122.304;2022-07-06T09:35:45;101399.84;;;23.79
44791;BMP280;30510;37.536;-122.304;2022-07-06T09:38:13;101397.69;;;23.82
44791;BMP280;30510;37.536;-122.304;2022-07-06T09:40:40;101400.97;;;23.76
44791;BMP280;30510;37.536;-122.304;2022-07-06T09:43:09;101397.25;;;23.77
44791;BMP280;30510;37.536;-122.304;2022-07-06T09:45:35;101403.72;;;23.76
44791;BMP280;30510;37.536;-122.304;2022-07-06T09:48:05;101408.19;;;23.77
44791;BMP280;30510;37.536;-122.304;2022-07-06T09:50:37;101400.97;;;23.76
44791;BMP280;30510;37.536;-122.304;2022-07-06T09:53:03;101395.78;;;23.73
44791;BMP280;30510;37.536;-122.304;2022-07-06T09:55:29;101397.81;;;23.71
44791;BMP280;30510;37.536;-122.304;2022-07-06T09:57:54;101406.88;;;23.72
44791;BMP280;30510;37.536;-122.304;2022-07-06T10:00:20;101403.53;;;23.68
44791;BMP280;30510;37.536;-122.304;2022-07-06T10:02:46;101395.06;;;23.71
44791;BMP280;30510;37.536;-122.304;2022-07-06T10:05:12;101395.06;;;23.71
44791;BMP280;30510;37.536;-122.304;2022-07-06T10:07:38;101394.28;;;23.69
44791;BMP280;30510;37.536;-122.304;2022-07-06T10:10:03;101399.03;;;23.67
44791;BMP280;30510;37.536;-122.304;2022-07-06T10:12:29;101401.06;;;23.65
44791;BMP280;30510;37.536;-122.304;2022-07-06T10:14:55;101395.59;;;23.65
44791;BMP280;30510;37.536;-122.304;2022-07-06T10:17:20;101398.47;;;23.64
44791;BMP280;30510;37.536;-122.304;2022-07-06T10:19:46;101396.75;;;23.63
44791;BMP280;30510;37.536;-122.304;2022-07-06T10:22:12;101398.59;;;23.62
44791;BMP280;30510;37.536;-122.304;2022-07-06T10:24:38;101401.19;;;23.64
44791;BMP280;30510;37.536;-122.304;2022-07-06T10:27:06;101398.75;;;23.61
44791;BMP280;30510;37.536;-122.304;2022-07-06T10:29:32;101397.22;;;23.57
44791;BMP280;30510;37.536;-122.304;2022-07-06T10:31:58;101394.34;;;23.58
44791;BMP280;30510;37.536;-122.304;2022-07-06T10:34:24;101393.50;;;23.58
44791;BMP280;30510;37.536;-122.304;2022-07-06T10:36:50;101391.03;;;23.55
44791;BMP280;30510;37.536;-122.304;2022-07-06T10:39:16;101390.88;;;23.56
44791;BMP280;30510;37.536;-122.304;2022-07-06T10:41:56;101389.00;;;23.57
44791;BMP280;30510;37.536;-122.304;2022-07-06T10:44:22;101386.41;;;23.55
44791;BMP280;30510;37.536;-122.304;2022-07-06T10:46:51;101382.94;;;23.53
44791;BMP280;30510;37.536;-122.304;2022-07-06T10:49:17;101389.44;;;23.53
44791;BMP280;30510;37.536;-122.304;2022-07-06T10:51:42;101383.06;;;23.52
44791;BMP280;30510;37.536;-122.304;2022-07-06T10:54:08;101384.81;;;23.53
44791;BMP280;30510;37.536;-122.304;2022-07-06T10:56:37;101380.31;;;23.52
44791;BMP280;30510;37.536;-122.304;2022-07-06T10:59:24;101382.47;;;23.49
44791;BMP280;30510;37.536;-122.304;2022-07-06T11:04:32;101384.22;;;23.50
44791;BMP280;30510;37.536;-122.304;2022-07-06T11:07:06;101387.09;;;23.48
44791;BMP280;30510;37.536;-122.304;2022-07-06T11:09:31;101385.38;;;23.47
44791;BMP280;30510;37.536;-122.304;2022-07-06T11:11:57;101391.69;;;23.48
44791;BMP280;30510;37.536;-122.304;2022-07-06T11:14:22;101384.94;;;23.52
44791;BMP280;30510;37.536;-122.304;2022-07-06T11:19:14;101381.25;;;23.42
44791;BMP280;30510;37.536;-122.304;2022-07-06T11:24:20;101387.50;;;23.44
44791;BMP280;30510;37.536;-122.304;2022-07-06T11:26:47;101385.88;;;23.41
44791;BMP280;30510;37.536;-122.304;2022-07-06T11:29:13;101385.28;;;23.38
44791;BMP280;30510;37.536;-122.304;2022-07-06T11:31:39;101391.03;;;23.35
44791;BMP280;30510;37.536;-122.304;2022-07-06T11:34:06;101387.28;;;23.36
44791;BMP280;30510;37.536;-122.304;2022-07-06T11:36:32;101390.03;;;23.36
44791;BMP280;30510;37.536;-122.304;2022-07-06T11:38:57;101393.75;;;23.35
44791;BMP280;30510;37.536;-122.304;2022-07-06T11:41:23;101393.03;;;23.33
44791;BMP280;30510;37.536;-122.304;2022-07-06T11:43:48;101396.78;;;23.32
44791;BMP280;30510;37.536;-122.304;2022-07-06T11:46:20;101402.28;;;23.32
44791;BMP280;30510;37.536;-122.304;2022-07-06T11:48:49;101401.25;;;23.33
44791;BMP280;30510;37.536;-122.304;2022-07-06T11:51:15;101402.53;;;23.29
44791;BMP280;30510;37.536;-122.304;2022-07-06T11:53:44;101398.94;;;23.28
44791;BMP280;30510;37.536;-122.304;2022-07-06T11:56:10;101397.06;;;23.29
44791;BMP280;30510;37.536;-122.304;2022-07-06T11:58:35;101397.31;;;23.26
44791;BMP280;30510;37.536;-122.304;2022-07-06T12:01:04;101395.31;;;23.28
44791;BMP280;30510;37.536;-122.304;2022-07-06T12:03:30;101393.47;;;23.28
44791;BMP280;30510;37.536;-122.304;2022-07-06T12:05:55;101401.66;;;23.28
44791;BMP280;30510;37.536;-122.304;2022-07-06T12:08:21;101399.78;;;23.29
44791;BMP280;30510;37.536;-122.304;2022-07-06T12:10:46;101404.91;;;23.22
44791;BMP280;30510;37.536;-122.304;2022-07-06T12:13:12;101398.47;;;23.23
44791;BMP280;30510;37.536;-122.304;2022-07-06T12:15:37;101401.31;;;23.22
44791;BMP280;30510;37.536;-122.304;2022-07-06T12:18:03;101399.56;;;23.21
44791;BMP280;30510;37.536;-122.304;2022-07-06T12:20:28;101395.84;;;23.22
44791;BMP280;30510;37.536;-122.304;2022-07-06T12:23:03;101404.19;;;23.20
44791;BMP280;30510;37.536;-122.304;2022-07-06T12:25:29;101401.31;;;23.22
44791;BMP280;30510;37.536;-122.304;2022-07-06T12:27:55;101396.22;;;23.17
44791;BMP280;30510;37.536;-122.304;2022-07-06T12:30:20;101409.66;;;23.20
44791;BMP280;30510;37.536;-122.304;2022-07-06T12:32:45;101412.81;;;23.16
44791;BMP280;30510;37.536;-122.304;2022-07-06T12:35:11;101409.06;;;23.17
44791;BMP280;30510;37.536;-122.304;2022-07-06T12:37:37;101401.88;;;23.16
44791;BMP280;30510;37.536;-122.304;2022-07-06T12:40:02;101405.59;;;23.15
44791;BMP280;30510;37.536;-122.304;2022-07-06T12:42:42;101412.06;;;23.14
44791;BMP280;30510;37.536;-122.304;2022-07-06T12:45:10;101398.38;;;23.14
44791;BMP280;30510;37.536;-122.304;2022-07-06T12:47:35;101395.78;;;23.13
44791;BMP280;30510;37.536;-122.304;2022-07-06T12:50:04;101393.06;;;23.13
44791;BMP280;30510;37.536;-122.304;2022-07-06T12:52:30;101400.91;;;23.06
44791;BMP280;30510;37.536;-122.304;2022-07-06T12:54:59;101407.00;;;23.10
44791;BMP280;30510;37.536;-122.304;2022-07-06T12:57:24;101412.59;;;23.08
44791;BMP280;30510;37.536;-122.304;2022-07-06T13:02:20;101410.13;;;23.05
44791;BMP280;30510;37.536;-122.304;2022-07-06T13:04:55;101415.59;;;23.05
44791;BMP280;30510;37.536;-122.304;2022-07-06T13:07:21;101422.94;;;23.05
44791;BMP280;30510;37.536;-122.304;2022-07-06T13:09:47;101424.53;;;23.07
44791;BMP280;30510;37.536;-122.304;2022-07-06T13:12:12;101428.56;;;23.03
44791;BMP280;30510;37.536;-122.304;2022-07-06T13:14:38;101433.16;;;23.03
44791;BMP280;30510;37.536;-122.304;2022-07-06T13:17:03;101428.56;;;23.03
44791;BMP280;30510;37.536;-122.304;2022-07-06T13:19:29;101433.78;;;23.06
44791;BMP280;30510;37.536;-122.304;2022-07-06T13:21:54;101435.78;;;23.04
44791;BMP280;30510;37.536;-122.304;2022-07-06T13:24:19;101442.97;;;23.05